createdAt,value
2022-07-25T00:00:59.086Z,14.60
2022-07-25T00:03:46.124Z,14.50
2022-07-25T00:06:32.178Z,14.50
2022-07-25T00:09:17.341Z,14.50
2022-07-25T00:12:02.610Z,14.50
2022-07-25T00:14:51.025Z,14.50
2022-07-25T00:17:36.176Z,14.50
2022-07-25T00:20:21.225Z,14.50
2022-07-25T00:23:06.328Z,14.40
2022-07-25T00:25:51.495Z,14.40
2022-07-25T00:28:36.466Z,14.30
2022-07-25T00:31:21.588Z,14.20
2022-07-25T00:34:07.483Z,14.10
2022-07-25T00:36:53.623Z,14.00
2022-07-25T00:39:39.111Z,14.00
2022-07-25T00:42:24.556Z,14.00
2022-07-25T00:45:10.842Z,14.00
2022-07-25T00:47:56.021Z,13.90
2022-07-25T00:50:41.178Z,13.80
2022-07-25T00:53:26.564Z,13.80
2022-07-25T00:56:11.731Z,13.70
2022-07-25T00:58:56.970Z,13.70
2022-07-25T01:01:42.699Z,13.70
2022-07-25T01:04:28.046Z,13.70
2022-07-25T01:07:13.784Z,13.80
2022-07-25T01:09:59.305Z,13.70
2022-07-25T01:12:48.956Z,13.70
2022-07-25T01:15:34.598Z,13.80
2022-07-25T01:18:20.205Z,13.80
2022-07-25T01:21:05.572Z,13.80
2022-07-25T01:23:50.774Z,13.80
2022-07-25T01:26:36.958Z,13.80
2022-07-25T01:29:22.522Z,13.80
2022-07-25T01:32:08.056Z,13.80
2022-07-25T01:34:53.504Z,13.80
2022-07-25T01:37:39.337Z,13.80
2022-07-25T01:40:24.840Z,13.90
2022-07-25T01:43:10.335Z,13.80
2022-07-25T01:45:56.021Z,13.80
2022-07-25T01:48:41.564Z,13.80
2022-07-25T01:51:27.067Z,13.80
2022-07-25T01:54:12.215Z,13.70
2022-07-25T01:56:57.370Z,13.70
2022-07-25T01:59:42.932Z,13.80
2022-07-25T02:02:28.014Z,13.80
2022-07-25T02:05:14.061Z,13.80
2022-07-25T02:07:59.085Z,13.80
2022-07-25T02:10:44.150Z,13.80
2022-07-25T02:13:29.392Z,13.70
2022-07-25T02:16:14.401Z,13.80
2022-07-25T02:18:59.555Z,13.80
2022-07-25T02:21:44.639Z,13.80
2022-07-25T02:24:29.609Z,13.80
2022-07-25T02:27:14.750Z,13.70
2022-07-25T02:30:00.341Z,13.70
2022-07-25T02:32:45.630Z,13.70
2022-07-25T02:35:31.199Z,13.70
2022-07-25T02:38:19.782Z,13.80
2022-07-25T02:41:05.701Z,13.70
2022-07-25T02:43:51.205Z,13.80
2022-07-25T02:46:36.309Z,13.80
2022-07-25T02:49:21.991Z,13.80
2022-07-25T02:52:07.435Z,13.80
2022-07-25T02:54:53.020Z,13.70
2022-07-25T02:57:38.344Z,13.70
2022-07-25T03:00:24.026Z,13.80
2022-07-25T03:03:09.512Z,13.70
2022-07-25T03:05:55.711Z,13.70
2022-07-25T03:08:40.792Z,13.70
2022-07-25T03:11:26.980Z,13.70
2022-07-25T03:14:12.127Z,13.80
2022-07-25T03:16:57.309Z,13.90
2022-07-25T03:19:43.580Z,14.00
2022-07-25T03:22:29.006Z,14.00
2022-07-25T03:25:15.926Z,14.10
2022-07-25T03:28:07.252Z,14.10
2022-07-25T03:30:52.873Z,14.10
2022-07-25T03:33:37.888Z,14.10
2022-07-25T03:36:22.796Z,14.10
2022-07-25T03:39:07.981Z,14.30
2022-07-25T03:41:54.195Z,14.40
2022-07-25T03:44:39.474Z,14.70
2022-07-25T03:47:24.667Z,14.90
2022-07-25T03:50:10.492Z,15.10
2022-07-25T03:52:56.224Z,15.30
2022-07-25T03:55:41.599Z,15.50
2022-07-25T03:58:26.640Z,15.70
2022-07-25T04:01:11.842Z,16.00
2022-07-25T04:03:57.816Z,16.30
2022-07-25T04:06:43.066Z,16.50
2022-07-25T04:09:33.262Z,16.50
2022-07-25T04:12:19.094Z,16.60
2022-07-25T04:15:04.833Z,16.70
2022-07-25T04:17:49.979Z,16.70
2022-07-25T04:20:37.526Z,16.80
2022-07-25T04:23:23.183Z,16.80
2022-07-25T04:26:08.712Z,16.90
2022-07-25T04:28:53.778Z,16.90
2022-07-25T04:31:39.041Z,16.90
2022-07-25T04:34:24.585Z,17.00
2022-07-25T04:37:09.664Z,17.20
2022-07-25T04:39:54.678Z,17.10
2022-07-25T04:42:39.827Z,17.20
2022-07-25T04:45:25.119Z,17.20
2022-07-25T04:48:10.521Z,17.30
2022-07-25T04:50:55.532Z,17.30
2022-07-25T04:53:40.588Z,17.50
2022-07-25T04:56:25.699Z,17.50
2022-07-25T04:59:10.779Z,17.50
2022-07-25T05:01:56.621Z,17.60
2022-07-25T05:04:45.457Z,17.60
2022-07-25T05:07:31.003Z,17.70
2022-07-25T05:10:16.201Z,17.80
2022-07-25T05:13:01.157Z,17.80
2022-07-25T05:15:46.213Z,17.80
2022-07-25T05:18:33.342Z,17.90
2022-07-25T05:21:18.676Z,17.80
2022-07-25T05:24:04.535Z,17.90
2022-07-25T05:26:50.064Z,17.90
2022-07-25T05:29:35.327Z,17.90
2022-07-25T05:32:20.568Z,17.90
2022-07-25T05:35:07.999Z,17.90
2022-07-25T05:37:53.294Z,17.90
2022-07-25T05:40:38.476Z,17.90
2022-07-25T05:43:24.094Z,17.90
2022-07-25T05:46:09.321Z,18.00
2022-07-25T05:48:54.900Z,18.10
2022-07-25T05:51:40.295Z,18.10
2022-07-25T05:54:25.809Z,18.20
2022-07-25T05:57:13.130Z,18.30
2022-07-25T05:59:58.598Z,18.40
2022-07-25T06:02:43.812Z,18.40
2022-07-25T06:05:29.197Z,18.60
2022-07-25T06:08:14.478Z,18.60
2022-07-25T06:11:00.079Z,18.70
2022-07-25T06:13:45.979Z,18.80
2022-07-25T06:16:31.472Z,18.80
2022-07-25T06:19:17.746Z,18.90
2022-07-25T06:22:02.844Z,19.00
2022-07-25T06:24:48.006Z,19.10
2022-07-25T06:27:33.172Z,19.30
2022-07-25T06:30:20.699Z,19.30
2022-07-25T06:33:06.231Z,19.50
2022-07-25T06:35:51.359Z,19.50
2022-07-25T06:38:36.641Z,19.60
2022-07-25T06:41:21.776Z,19.60
2022-07-25T06:44:07.291Z,19.70
2022-07-25T06:46:53.144Z,19.70
2022-07-25T06:49:39.116Z,19.80
2022-07-25T06:52:24.565Z,19.90
2022-07-25T06:55:10.635Z,19.90
2022-07-25T06:57:56.103Z,19.90
2022-07-25T07:00:41.361Z,19.90
2022-07-25T07:03:27.056Z,20.00
2022-07-25T07:06:12.574Z,20.10
2022-07-25T07:08:58.363Z,20.20
2022-07-25T07:11:43.325Z,20.30
2022-07-25T07:14:28.941Z,20.40
2022-07-25T07:17:14.436Z,20.50
2022-07-25T07:19:59.541Z,20.50
2022-07-25T07:22:45.927Z,20.50
2022-07-25T07:25:31.389Z,20.50
2022-07-25T07:28:16.824Z,20.60
2022-07-25T07:31:18.056Z,20.60
2022-07-25T07:34:03.689Z,20.60
2022-07-25T07:36:48.864Z,20.60
2022-07-25T07:39:34.378Z,20.70
2022-07-25T07:42:19.954Z,20.80
2022-07-25T07:45:10.499Z,20.80
2022-07-25T07:47:55.676Z,20.90
2022-07-25T07:50:41.143Z,20.90
2022-07-25T07:53:46.960Z,20.90
2022-07-25T07:56:32.179Z,21.00
2022-07-25T07:59:18.396Z,21.00
2022-07-25T08:02:04.124Z,21.10
2022-07-25T08:04:49.614Z,21.20
2022-07-25T08:07:35.275Z,21.20
2022-07-25T08:10:21.994Z,21.40
2022-07-25T08:13:17.829Z,21.40
2022-07-25T08:16:03.862Z,21.50
2022-07-25T08:18:49.104Z,21.60
2022-07-25T08:21:34.784Z,21.60
2022-07-25T08:24:19.953Z,21.60
2022-07-25T08:27:05.519Z,23.70
2022-07-25T08:29:50.563Z,21.70
2022-07-25T08:32:46.019Z,21.80
2022-07-25T08:35:32.987Z,21.90
2022-07-25T08:38:18.785Z,22.00
2022-07-25T08:41:04.216Z,22.10
2022-07-25T08:43:50.115Z,22.10
2022-07-25T08:46:35.696Z,22.20
2022-07-25T08:49:20.878Z,22.20
2022-07-25T08:52:08.708Z,22.10
2022-07-25T08:54:54.261Z,22.20
2022-07-25T08:57:43.593Z,22.20
2022-07-25T09:00:29.077Z,22.20
2022-07-25T09:03:14.543Z,22.30
2022-07-25T09:06:01.577Z,22.30
2022-07-25T09:08:52.809Z,22.30
2022-07-25T09:11:38.113Z,22.40
2022-07-25T09:14:23.638Z,22.40
2022-07-25T09:17:22.331Z,22.50
2022-07-25T09:20:09.373Z,22.50
2022-07-25T09:22:54.549Z,22.60
2022-07-25T09:25:39.930Z,22.70
2022-07-25T09:28:25.310Z,22.80
2022-07-25T09:31:11.042Z,22.90
2022-07-25T09:33:57.002Z,23.00
2022-07-25T09:36:54.776Z,23.20
2022-07-25T09:39:47.485Z,23.30
2022-07-25T09:42:34.518Z,23.40
2022-07-25T09:45:19.749Z,23.40
2022-07-25T09:48:05.107Z,23.50
2022-07-25T09:50:50.539Z,23.50
2022-07-25T09:53:36.009Z,23.60
2022-07-25T09:56:21.391Z,23.70
2022-07-25T09:59:06.985Z,23.80
2022-07-25T10:01:56.417Z,23.80
2022-07-25T10:04:44.255Z,23.80
2022-07-25T10:07:31.476Z,23.90
2022-07-25T10:10:30.531Z,24.00
2022-07-25T10:13:17.898Z,24.10
2022-07-25T10:16:03.327Z,24.20
2022-07-25T10:18:50.056Z,24.20
2022-07-25T10:21:35.164Z,24.30
2022-07-25T10:24:20.834Z,24.30
2022-07-25T10:27:09.946Z,24.40
2022-07-25T10:29:55.464Z,24.40
2022-07-25T10:32:48.895Z,24.50
2022-07-25T10:35:34.308Z,24.50
2022-07-25T10:38:28.384Z,24.60
2022-07-25T10:41:15.573Z,24.60
2022-07-25T10:44:02.116Z,24.80
2022-07-25T10:46:48.554Z,24.80
2022-07-25T10:49:40.629Z,24.90
2022-07-25T10:52:40.450Z,25.00
2022-07-25T10:55:27.965Z,25.10
2022-07-25T10:58:17.970Z,25.30
2022-07-25T11:01:04.113Z,25.30
2022-07-25T11:03:50.275Z,25.30
2022-07-25T11:06:36.612Z,25.40
2022-07-25T11:09:27.245Z,25.50
2022-07-25T11:12:16.695Z,25.60
2022-07-25T11:15:04.059Z,25.70
2022-07-25T11:17:50.061Z,25.70
2022-07-25T11:20:35.426Z,25.70
2022-07-25T11:23:23.640Z,25.70
2022-07-25T11:26:10.213Z,25.80
2022-07-25T11:28:55.899Z,25.90
2022-07-25T11:31:41.825Z,26.00
2022-07-25T11:34:29.587Z,26.10
2022-07-25T11:37:15.928Z,26.20
2022-07-25T11:40:02.180Z,26.30
2022-07-25T11:42:47.766Z,26.50
2022-07-25T11:45:34.029Z,26.60
2022-07-25T11:48:22.842Z,26.60
2022-07-25T11:51:18.612Z,26.70
2022-07-25T11:54:08.942Z,26.80
2022-07-25T11:56:54.622Z,27.00
2022-07-25T11:59:42.859Z,27.10
2022-07-25T12:02:28.106Z,27.20
2022-07-25T12:05:15.469Z,27.30
2022-07-25T12:08:08.794Z,27.40
2022-07-25T12:10:55.705Z,27.60
2022-07-25T12:13:41.017Z,27.70
2022-07-25T12:16:26.609Z,27.80
2022-07-25T12:19:19.877Z,27.90
2022-07-25T12:22:05.373Z,28.10
2022-07-25T12:24:50.439Z,28.20
2022-07-25T12:27:35.483Z,28.30
2022-07-25T12:30:20.537Z,28.40
2022-07-25T12:33:06.365Z,28.30
2022-07-25T12:35:51.745Z,28.30
2022-07-25T12:38:37.005Z,28.40
2022-07-25T12:41:23.623Z,28.60
2022-07-25T12:44:09.203Z,28.80
2022-07-25T12:46:54.351Z,29.00
2022-07-25T12:49:40.005Z,29.20
2022-07-25T12:52:25.274Z,29.30
2022-07-25T12:55:15.744Z,29.20
2022-07-25T12:58:01.317Z,29.30
2022-07-25T13:00:46.934Z,29.30
2022-07-25T13:03:32.189Z,29.30
2022-07-25T13:06:20.785Z,29.40
2022-07-25T13:09:06.327Z,29.40
2022-07-25T13:11:51.746Z,29.50
2022-07-25T13:14:36.994Z,29.40
2022-07-25T13:17:27.131Z,29.40
2022-07-25T13:20:13.287Z,29.40
2022-07-25T13:22:58.518Z,29.50
2022-07-25T13:25:44.242Z,29.60
2022-07-25T13:28:29.256Z,29.50
2022-07-25T13:31:14.428Z,29.60
2022-07-25T13:33:59.870Z,29.70
2022-07-25T13:36:45.367Z,29.90
2022-07-25T13:39:31.048Z,30.00
2022-07-25T13:42:16.787Z,30.20
2022-07-25T13:45:02.273Z,30.40
2022-07-25T13:47:56.352Z,30.60
2022-07-25T13:50:51.377Z,30.80
2022-07-25T13:53:36.661Z,31.00
2022-07-25T13:56:22.196Z,30.70
2022-07-25T13:59:08.393Z,30.30
2022-07-25T14:01:53.866Z,30.10
2022-07-25T14:04:39.997Z,30.30
2022-07-25T14:07:25.179Z,30.60
2022-07-25T14:10:10.429Z,31.10
2022-07-25T14:12:56.025Z,31.30
2022-07-25T14:15:41.259Z,31.60
2022-07-25T14:18:26.613Z,31.60
2022-07-25T14:21:12.492Z,31.40
2022-07-25T14:23:57.553Z,31.10
2022-07-25T14:26:42.734Z,30.60
2022-07-25T14:29:30.556Z,30.30
2022-07-25T14:32:15.919Z,30.20
2022-07-25T14:35:02.388Z,30.20
2022-07-25T14:37:47.538Z,30.30
2022-07-25T14:40:33.560Z,30.60
2022-07-25T14:43:19.069Z,31.00
2022-07-25T14:46:05.120Z,31.30
2022-07-25T14:48:50.791Z,31.40
2022-07-25T14:51:35.837Z,31.20
2022-07-25T14:54:20.842Z,30.90
2022-07-25T14:57:07.242Z,30.70
2022-07-25T14:59:52.436Z,30.80
2022-07-25T15:02:38.278Z,31.10
2022-07-25T15:05:23.628Z,31.20
2022-07-25T15:08:09.587Z,31.50
2022-07-25T15:10:55.018Z,31.80
2022-07-25T15:13:40.409Z,32.10
2022-07-25T15:16:25.681Z,32.50
2022-07-25T15:19:16.839Z,32.50
2022-07-25T15:22:03.915Z,32.70
2022-07-25T15:27:54.818Z,31.90
2022-07-25T15:30:40.300Z,31.30
2022-07-25T15:33:25.531Z,31.00
2022-07-25T15:36:11.013Z,30.90
2022-07-25T15:38:56.584Z,30.80
2022-07-25T15:41:41.743Z,30.70
2022-07-25T15:44:27.230Z,30.40
2022-07-25T15:47:13.002Z,30.00
2022-07-25T15:49:58.472Z,29.80
2022-07-25T15:52:43.529Z,29.80
2022-07-25T15:55:29.007Z,29.90
2022-07-25T15:58:14.576Z,30.30
2022-07-25T16:01:00.197Z,30.40
2022-07-25T16:03:45.934Z,30.40
2022-07-25T16:06:31.170Z,30.20
2022-07-25T16:09:17.223Z,29.90
2022-07-25T16:12:02.611Z,29.70
2022-07-25T16:14:48.431Z,29.60
2022-07-25T16:17:33.977Z,29.50
2022-07-25T16:20:19.605Z,29.50
2022-07-25T16:23:05.326Z,29.30
2022-07-25T16:25:50.797Z,29.10
2022-07-25T16:28:36.491Z,29.00
2022-07-25T16:31:22.105Z,28.90
2022-07-25T16:34:07.629Z,28.80
2022-07-25T16:36:53.941Z,28.80
2022-07-25T16:39:39.565Z,28.70
2022-07-25T16:42:24.965Z,28.70
2022-07-25T16:45:10.446Z,28.60
2022-07-25T16:47:56.293Z,28.50
2022-07-25T16:50:41.810Z,28.40
2022-07-25T16:53:26.899Z,28.30
2022-07-25T16:56:11.989Z,28.10
2022-07-25T16:58:57.583Z,27.80
2022-07-25T17:01:42.755Z,27.70
2022-07-25T17:04:28.383Z,27.60
2022-07-25T17:07:14.276Z,27.40
2022-07-25T17:09:59.551Z,27.30
2022-07-25T17:12:45.019Z,27.20
2022-07-25T17:15:30.748Z,27.10
2022-07-25T17:18:16.568Z,27.00
2022-07-25T17:21:01.924Z,26.90
2022-07-25T17:23:47.895Z,26.60
2022-07-25T17:26:33.157Z,26.50
2022-07-25T17:29:18.361Z,26.30
2022-07-25T17:32:05.911Z,26.20
2022-07-25T17:34:53.353Z,26.00
2022-07-25T17:37:39.962Z,26.00
2022-07-25T17:40:25.499Z,25.90
2022-07-25T17:43:10.492Z,25.90
2022-07-25T17:45:56.110Z,25.90
2022-07-25T17:48:41.261Z,25.80
2022-07-25T17:51:26.539Z,25.80
2022-07-25T17:54:12.040Z,25.80
2022-07-25T17:56:57.627Z,25.80
2022-07-25T17:59:43.189Z,25.70
2022-07-25T18:02:29.066Z,25.60
2022-07-25T18:05:14.745Z,25.50
2022-07-25T18:08:00.266Z,25.30
2022-07-25T18:10:45.633Z,25.20
2022-07-25T18:13:30.785Z,25.10
2022-07-25T18:16:16.281Z,25.10
2022-07-25T18:19:01.959Z,24.90
2022-07-25T18:21:47.762Z,24.80
2022-07-25T18:24:33.014Z,24.80
2022-07-25T18:27:18.227Z,24.60
2022-07-25T18:30:07.781Z,24.60
2022-07-25T18:32:53.382Z,24.50
2022-07-25T18:35:38.449Z,24.30
2022-07-25T18:38:24.032Z,24.20
2022-07-25T18:41:28.595Z,24.10
2022-07-25T18:44:14.250Z,23.90
2022-07-25T18:47:00.360Z,23.80
2022-07-25T18:49:45.507Z,23.60
2022-07-25T18:52:34.999Z,23.50
2022-07-25T18:55:20.497Z,23.40
2022-07-25T18:58:05.709Z,23.20
2022-07-25T19:00:51.082Z,23.00
2022-07-25T19:03:37.586Z,22.90
2022-07-25T19:06:23.295Z,22.80
2022-07-25T19:09:09.344Z,22.70
2022-07-25T19:11:56.616Z,22.60
2022-07-25T19:14:42.209Z,22.50
2022-07-25T19:17:27.303Z,22.40
2022-07-25T19:20:12.577Z,22.20
2022-07-25T19:22:58.058Z,22.10
2022-07-25T19:25:43.827Z,22.00
2022-07-25T19:28:29.896Z,21.90
2022-07-25T19:31:15.276Z,21.80
2022-07-25T19:34:00.953Z,21.70
2022-07-25T19:36:46.543Z,21.60
2022-07-25T19:39:32.088Z,21.60
2022-07-25T19:42:17.347Z,21.50
2022-07-25T19:45:02.821Z,21.50
2022-07-25T19:47:49.477Z,21.40
2022-07-25T19:50:34.961Z,21.40
2022-07-25T19:53:23.165Z,21.30
2022-07-25T19:56:12.205Z,21.30
2022-07-25T19:58:58.039Z,21.30
2022-07-25T20:01:43.527Z,21.30
2022-07-25T20:04:29.145Z,21.20
2022-07-25T20:07:14.179Z,21.20
2022-07-25T20:09:59.616Z,21.10
2022-07-25T20:12:44.828Z,21.10
2022-07-25T20:15:30.210Z,21.20
2022-07-25T20:18:19.510Z,21.00
2022-07-25T20:21:05.831Z,21.00
2022-07-25T20:23:50.899Z,21.00
2022-07-25T20:26:36.061Z,21.00
2022-07-25T20:29:21.157Z,20.90
2022-07-25T20:32:06.169Z,20.90
2022-07-25T20:34:52.645Z,20.90
2022-07-25T20:37:38.039Z,20.80
2022-07-25T20:40:24.277Z,20.70
2022-07-25T20:43:09.889Z,22.10
2022-07-25T20:45:55.363Z,20.70
2022-07-25T20:48:40.937Z,20.60
2022-07-25T20:51:26.441Z,20.50
2022-07-25T20:54:12.765Z,20.60
2022-07-25T20:56:58.334Z,20.40
2022-07-25T20:59:43.370Z,20.50
2022-07-25T21:02:28.617Z,20.50
2022-07-25T21:05:14.056Z,20.40
2022-07-25T21:08:00.132Z,20.40
2022-07-25T21:10:45.429Z,20.30
2022-07-25T21:13:33.067Z,20.30
2022-07-25T21:16:19.822Z,20.30
2022-07-25T21:19:05.876Z,20.30
2022-07-25T21:21:51.512Z,20.30
2022-07-25T21:24:36.848Z,20.30
2022-07-25T21:27:22.119Z,20.30
2022-07-25T21:30:09.189Z,20.30
2022-07-25T21:32:54.800Z,20.30
2022-07-25T21:35:49.137Z,20.30
2022-07-25T21:38:39.093Z,20.20
2022-07-25T21:41:24.260Z,20.20
2022-07-25T21:44:10.297Z,20.40
2022-07-25T21:46:55.680Z,20.20
2022-07-25T21:49:59.575Z,20.20
2022-07-25T21:52:44.917Z,20.20
2022-07-25T21:55:29.965Z,20.20
2022-07-25T21:58:15.070Z,20.20
2022-07-25T22:01:00.273Z,20.10
2022-07-25T22:03:45.775Z,20.10
2022-07-25T22:06:31.517Z,20.10
2022-07-25T22:09:16.485Z,17.80
2022-07-25T22:12:01.974Z,20.00
2022-07-25T22:14:47.181Z,20.00
2022-07-25T22:17:48.395Z,20.00
2022-07-25T22:20:35.079Z,19.90
2022-07-25T22:23:20.739Z,19.90
2022-07-25T22:26:05.935Z,19.90
2022-07-25T22:28:51.549Z,19.90
2022-07-25T22:31:39.177Z,19.80
2022-07-25T22:34:24.677Z,19.80
2022-07-25T22:37:09.731Z,19.80
2022-07-25T22:40:00.591Z,19.80
2022-07-25T22:42:46.669Z,19.80
2022-07-25T22:45:31.725Z,19.70
2022-07-25T23:13:58.150Z,20.20
2022-07-25T23:16:43.374Z,20.30
2022-07-25T23:19:29.061Z,20.30
2022-07-25T23:22:14.354Z,20.30
2022-07-25T23:24:59.663Z,20.30
2022-07-25T23:27:45.228Z,20.40
2022-07-25T23:30:30.780Z,20.40
2022-07-25T23:33:15.946Z,20.30
2022-07-25T23:36:01.537Z,20.40
2022-07-25T23:38:46.703Z,20.40
2022-07-25T23:41:31.848Z,20.40
2022-07-25T23:44:16.985Z,20.40
2022-07-25T23:47:02.249Z,20.40
2022-07-25T23:49:47.696Z,20.40
2022-07-25T23:52:33.574Z,20.40
2022-07-25T23:55:18.841Z,20.40
2022-07-25T23:58:03.946Z,20.30
